createdAt,value
2022-08-17T00:00:34.845Z,31.15
2022-08-17T00:01:27.467Z,31.15
2022-08-17T00:02:27.118Z,31.10
2022-08-17T00:03:25.957Z,31.15
2022-08-17T00:04:25.959Z,31.15
2022-08-17T00:05:25.936Z,31.10
2022-08-17T00:06:25.945Z,31.15
2022-08-17T00:07:25.907Z,31.15
2022-08-17T00:08:25.895Z,31.10
2022-08-17T00:09:25.892Z,31.15
2022-08-17T00:10:25.876Z,31.21
2022-08-17T00:11:25.878Z,31.10
2022-08-17T00:12:42.703Z,31.15
2022-08-17T00:13:26.838Z,31.10
2022-08-17T00:14:25.818Z,31.15
2022-08-17T00:15:25.796Z,31.10
2022-08-17T00:16:56.185Z,31.15
2022-08-17T00:17:26.776Z,31.15
2022-08-17T00:19:01.245Z,31.21
2022-08-17T00:19:26.746Z,31.21
2022-08-17T00:20:29.209Z,31.15
2022-08-17T00:21:26.737Z,31.15
2022-08-17T00:22:34.815Z,30.83
2022-08-17T00:23:26.694Z,31.15
2022-08-17T00:24:25.683Z,31.15
2022-08-17T00:25:25.666Z,31.15
2022-08-17T00:26:43.190Z,31.15
2022-08-17T00:27:26.635Z,31.15
2022-08-17T00:28:25.633Z,31.15
2022-08-17T00:29:25.605Z,31.15
2022-08-17T00:30:25.606Z,31.15
2022-08-17T00:31:25.598Z,31.21
2022-08-17T00:33:14.072Z,31.10
2022-08-17T00:33:26.989Z,31.15
2022-08-17T00:34:25.561Z,31.10
2022-08-17T00:35:25.527Z,31.15
2022-08-17T00:36:25.540Z,31.15
2022-08-17T00:37:25.505Z,31.15
2022-08-17T00:38:25.495Z,31.15
2022-08-17T00:39:25.532Z,31.15
2022-08-17T00:40:25.466Z,31.15
2022-08-17T00:41:25.467Z,31.15
2022-08-17T00:42:30.465Z,31.21
2022-08-17T00:43:26.428Z,31.15
2022-08-17T00:44:25.415Z,31.10
2022-08-17T00:45:26.396Z,31.10
2022-08-17T00:46:25.404Z,31.15
2022-08-17T00:47:25.366Z,31.15
2022-08-17T00:48:30.123Z,31.15
2022-08-17T00:49:26.349Z,31.15
2022-08-17T00:50:25.337Z,31.15
2022-08-17T00:51:25.776Z,31.15
2022-08-17T00:52:25.308Z,31.15
2022-08-17T00:53:25.286Z,31.21
2022-08-17T00:54:25.296Z,31.15
2022-08-17T00:55:25.271Z,31.15
2022-08-17T00:56:25.273Z,31.15
2022-08-17T00:57:25.246Z,31.15
2022-08-17T00:58:30.381Z,31.15
2022-08-17T00:59:26.216Z,31.15
2022-08-17T01:00:25.210Z,31.26
2022-08-17T01:01:25.253Z,31.15
2022-08-17T01:02:25.176Z,31.15
2022-08-17T01:03:25.164Z,31.15
2022-08-17T01:04:25.146Z,31.15
2022-08-17T01:05:25.416Z,31.15
2022-08-17T01:06:25.124Z,31.15
2022-08-17T01:07:25.128Z,31.15
2022-08-17T01:08:25.095Z,31.15
2022-08-17T01:09:25.075Z,31.15
2022-08-17T01:10:59.551Z,31.15
2022-08-17T01:11:26.078Z,33.35
2022-08-17T01:12:25.057Z,31.15
2022-08-17T01:13:25.026Z,31.15
2022-08-17T01:14:25.015Z,31.26
2022-08-17T01:15:24.995Z,31.15
2022-08-17T01:16:25.001Z,31.15
2022-08-17T01:17:24.986Z,31.15
2022-08-17T01:18:24.970Z,31.15
2022-08-17T01:19:24.948Z,31.10
2022-08-17T01:20:24.935Z,31.15
2022-08-17T01:21:24.931Z,31.21
2022-08-17T01:22:24.925Z,31.15
2022-08-17T01:23:24.886Z,31.15
2022-08-17T01:24:24.884Z,31.15
2022-08-17T01:25:24.865Z,31.15
2022-08-17T01:26:24.858Z,31.10
2022-08-17T01:27:24.856Z,31.15
2022-08-17T01:28:52.539Z,31.15
2022-08-17T01:29:25.816Z,31.15
2022-08-17T01:30:57.718Z,31.15
2022-08-17T01:31:25.795Z,31.10
2022-08-17T01:32:24.785Z,31.21
2022-08-17T01:33:24.765Z,31.15
2022-08-17T01:34:24.750Z,31.15
2022-08-17T01:35:25.736Z,30.45
2022-08-17T01:36:24.719Z,31.15
2022-08-17T01:37:24.727Z,31.10
2022-08-17T01:38:27.060Z,31.15
2022-08-17T01:39:24.721Z,31.10
2022-08-17T01:40:24.665Z,31.21
2022-08-17T01:41:24.654Z,31.15
2022-08-17T01:42:24.655Z,31.04
2022-08-17T01:43:24.626Z,31.15
2022-08-17T01:44:24.615Z,31.15
2022-08-17T01:45:24.609Z,31.15
2022-08-17T01:46:24.585Z,31.10
2022-08-17T01:47:24.595Z,31.15
2022-08-17T01:48:24.558Z,31.15
2022-08-17T01:49:24.555Z,31.15
2022-08-17T01:50:24.555Z,31.15
2022-08-17T01:51:24.530Z,31.15
2022-08-17T01:52:24.523Z,31.15
2022-08-17T01:53:24.497Z,31.15
2022-08-17T01:54:24.476Z,31.15
2022-08-17T01:55:27.352Z,31.15
2022-08-17T01:56:24.456Z,31.15
2022-08-17T01:57:24.465Z,31.15
2022-08-17T01:58:24.426Z,30.19
2022-08-17T01:59:24.415Z,31.10
2022-08-17T02:00:24.405Z,30.78
2022-08-17T02:01:24.493Z,31.21
2022-08-17T02:02:31.029Z,31.15
2022-08-17T02:03:25.365Z,31.15
2022-08-17T02:04:24.358Z,31.15
2022-08-17T02:05:24.355Z,31.15
2022-08-17T02:06:27.627Z,29.86
2022-08-17T02:07:26.112Z,31.15
2022-08-17T02:08:38.998Z,31.15
2022-08-17T02:09:25.789Z,31.10
2022-08-17T02:10:24.277Z,31.15
2022-08-17T02:11:25.264Z,31.10
2022-08-17T02:12:39.279Z,31.15
2022-08-17T02:13:25.235Z,31.15
2022-08-17T02:14:24.215Z,30.19
2022-08-17T02:15:24.205Z,31.15
2022-08-17T02:16:24.195Z,31.15
2022-08-17T02:17:24.203Z,30.78
2022-08-17T02:18:24.163Z,31.15
2022-08-17T02:19:24.159Z,30.19
2022-08-17T02:20:36.424Z,31.15
2022-08-17T02:21:25.125Z,31.15
2022-08-17T02:22:24.126Z,31.15
2022-08-17T02:23:24.104Z,31.15
2022-08-17T02:24:58.485Z,31.15
2022-08-17T02:25:25.072Z,31.15
2022-08-17T02:26:26.615Z,30.13
2022-08-17T02:27:24.056Z,31.15
2022-08-17T02:28:24.024Z,31.15
2022-08-17T02:29:24.024Z,31.10
2022-08-17T02:30:59.370Z,30.13
2022-08-17T02:31:24.997Z,31.10
2022-08-17T02:32:27.176Z,31.15
2022-08-17T02:33:24.948Z,31.10
2022-08-17T02:34:24.945Z,31.21
2022-08-17T02:35:23.935Z,31.15
2022-08-17T02:36:27.315Z,30.13
2022-08-17T02:37:23.936Z,31.15
2022-08-17T02:38:23.895Z,31.15
2022-08-17T02:39:24.054Z,31.15
2022-08-17T02:40:36.389Z,31.15
2022-08-17T02:41:24.893Z,31.15
2022-08-17T02:42:23.855Z,31.15
2022-08-17T02:43:23.835Z,31.15
2022-08-17T02:44:35.371Z,31.15
2022-08-17T02:45:24.805Z,32.60
2022-08-17T02:46:23.795Z,31.15
2022-08-17T02:47:23.810Z,31.15
2022-08-17T02:48:31.226Z,31.15
2022-08-17T02:49:24.755Z,30.13
2022-08-17T02:50:23.735Z,31.15
2022-08-17T02:51:23.745Z,30.19
2022-08-17T02:53:01.423Z,30.19
2022-08-17T02:53:24.694Z,30.19
2022-08-17T02:54:40.235Z,31.15
2022-08-17T02:55:24.674Z,30.83
2022-08-17T02:56:23.654Z,31.15
2022-08-17T02:57:23.673Z,30.13
2022-08-17T02:58:35.180Z,31.15
2022-08-17T02:59:24.615Z,30.19
2022-08-17T03:00:23.604Z,31.15
2022-08-17T03:01:23.648Z,30.72
2022-08-17T03:02:23.594Z,30.13
2022-08-17T03:03:23.576Z,30.19
2022-08-17T03:04:23.554Z,31.15
2022-08-17T03:05:23.544Z,31.10
2022-08-17T03:06:23.534Z,31.15
2022-08-17T03:07:23.534Z,31.15
2022-08-17T03:08:23.573Z,30.13
2022-08-17T03:09:23.493Z,31.21
2022-08-17T03:10:23.464Z,31.15
2022-08-17T03:11:23.486Z,31.15
2022-08-17T03:12:23.475Z,31.15
2022-08-17T03:13:23.439Z,31.15
2022-08-17T03:14:26.120Z,31.15
2022-08-17T03:15:23.424Z,30.94
2022-08-17T03:16:23.405Z,30.19
2022-08-17T03:17:23.404Z,30.13
2022-08-17T03:18:25.459Z,31.15
2022-08-17T03:19:23.355Z,31.10
2022-08-17T03:20:23.334Z,31.10
2022-08-17T03:21:23.324Z,31.10
2022-08-17T03:22:36.971Z,31.15
2022-08-17T03:23:25.598Z,31.10
2022-08-17T03:24:28.605Z,31.15
2022-08-17T03:25:24.273Z,31.15
2022-08-17T03:26:23.288Z,31.10
2022-08-17T03:27:23.269Z,30.13
2022-08-17T03:28:23.239Z,30.19
2022-08-17T03:29:23.224Z,31.15
2022-08-17T03:30:23.205Z,30.13
2022-08-17T03:31:23.196Z,31.15
2022-08-17T03:32:23.200Z,30.19
2022-08-17T03:33:23.176Z,30.13
2022-08-17T03:34:23.155Z,31.15
2022-08-17T03:35:23.143Z,31.15
2022-08-17T03:36:23.125Z,31.10
2022-08-17T03:37:23.124Z,31.26
2022-08-17T03:38:23.163Z,31.15
2022-08-17T03:39:23.084Z,30.13
2022-08-17T03:40:55.213Z,30.13
2022-08-17T03:41:24.079Z,30.13
2022-08-17T03:42:32.564Z,31.10
2022-08-17T03:43:24.069Z,31.15
2022-08-17T03:44:23.023Z,30.19
2022-08-17T03:45:23.013Z,30.19
2022-08-17T03:46:28.636Z,31.15
2022-08-17T03:47:24.004Z,30.13
2022-08-17T03:48:22.973Z,30.13
2022-08-17T03:49:22.962Z,30.19
2022-08-17T03:50:22.942Z,31.15
2022-08-17T03:51:22.933Z,31.10
2022-08-17T03:52:22.934Z,30.19
2022-08-17T03:53:22.903Z,30.19
2022-08-17T03:54:22.885Z,31.15
2022-08-17T03:55:22.880Z,31.15
2022-08-17T03:56:23.858Z,31.10
2022-08-17T03:57:22.869Z,31.15
2022-08-17T03:58:22.843Z,31.15
2022-08-17T03:59:22.838Z,30.13
2022-08-17T04:00:22.825Z,30.13
2022-08-17T04:01:22.825Z,31.15
2022-08-17T04:02:22.794Z,30.13
2022-08-17T04:03:22.772Z,30.19
2022-08-17T04:04:28.078Z,30.19
2022-08-17T04:05:23.744Z,31.47
2022-08-17T04:06:22.727Z,31.15
2022-08-17T04:07:22.735Z,30.19
2022-08-17T04:08:22.694Z,31.10
2022-08-17T04:09:22.703Z,30.19
2022-08-17T04:10:26.275Z,30.13
2022-08-17T04:11:22.663Z,30.13
2022-08-17T04:12:22.665Z,31.10
2022-08-17T04:13:24.251Z,30.13
2022-08-17T04:14:22.624Z,30.13
2022-08-17T04:15:22.613Z,31.15
2022-08-17T04:16:22.603Z,31.15
2022-08-17T04:17:22.593Z,30.13
2022-08-17T04:18:22.573Z,31.15
2022-08-17T04:19:22.562Z,31.15
2022-08-17T04:20:22.543Z,30.08
2022-08-17T04:21:22.534Z,30.13
2022-08-17T04:22:32.945Z,30.13
2022-08-17T04:23:23.515Z,30.13
2022-08-17T04:24:22.613Z,30.13
2022-08-17T04:25:22.472Z,30.19
2022-08-17T04:26:52.297Z,30.19
2022-08-17T04:27:23.470Z,30.19
2022-08-17T04:28:22.435Z,30.13
2022-08-17T04:29:22.431Z,30.19
2022-08-17T04:30:22.424Z,30.19
2022-08-17T04:31:22.409Z,30.19
2022-08-17T04:32:58.471Z,30.13
2022-08-17T04:33:23.375Z,30.13
2022-08-17T04:34:22.361Z,30.13
2022-08-17T04:35:22.343Z,30.13
2022-08-17T04:36:22.322Z,30.13
2022-08-17T04:37:22.348Z,30.13
2022-08-17T04:38:22.301Z,30.19
2022-08-17T04:39:22.303Z,30.19
2022-08-17T04:40:22.273Z,30.13
2022-08-17T04:41:22.265Z,30.13
2022-08-17T04:42:22.262Z,30.13
2022-08-17T04:43:22.242Z,30.13
2022-08-17T04:44:37.204Z,30.13
2022-08-17T04:45:23.213Z,31.21
2022-08-17T04:46:22.192Z,31.15
2022-08-17T04:47:22.193Z,30.13
2022-08-17T04:48:22.180Z,30.13
2022-08-17T04:49:22.155Z,30.19
2022-08-17T04:50:22.142Z,31.15
2022-08-17T04:51:22.134Z,30.19
2022-08-17T04:52:32.256Z,30.13
2022-08-17T04:53:23.110Z,30.13
2022-08-17T04:54:22.094Z,30.19
2022-08-17T04:55:22.073Z,30.13
2022-08-17T04:56:22.087Z,30.19
2022-08-17T04:57:22.063Z,30.13
2022-08-17T04:58:22.037Z,30.13
2022-08-17T04:59:22.024Z,30.13
2022-08-17T05:00:22.014Z,31.15
2022-08-17T05:01:24.050Z,30.19
2022-08-17T05:02:22.002Z,30.19
2022-08-17T05:03:21.975Z,30.19
2022-08-17T05:04:34.373Z,30.13
2022-08-17T05:05:22.943Z,30.13
2022-08-17T05:06:21.931Z,30.08
2022-08-17T05:07:24.607Z,30.08
2022-08-17T05:08:21.903Z,30.19
2022-08-17T05:09:21.902Z,30.08
2022-08-17T05:10:21.891Z,30.13
2022-08-17T05:11:21.903Z,30.13
2022-08-17T05:12:21.892Z,30.13
2022-08-17T05:13:21.841Z,30.13
2022-08-17T05:14:21.821Z,30.13
2022-08-17T05:15:22.814Z,30.13
2022-08-17T05:16:21.804Z,30.19
2022-08-17T05:17:21.804Z,30.13
2022-08-17T05:18:21.770Z,30.13
2022-08-17T05:19:21.778Z,30.13
2022-08-17T05:20:21.733Z,29.97
2022-08-17T05:21:21.739Z,30.19
2022-08-17T05:22:21.736Z,30.13
2022-08-17T05:23:21.707Z,30.19
2022-08-17T05:24:41.240Z,30.13
2022-08-17T05:25:25.738Z,30.13
2022-08-17T05:26:26.930Z,30.13
2022-08-17T05:27:22.672Z,30.19
2022-08-17T05:28:26.553Z,30.08
2022-08-17T05:29:22.633Z,30.19
2022-08-17T05:30:22.614Z,30.19
2022-08-17T05:31:21.620Z,30.13
2022-08-17T05:32:37.820Z,30.13
2022-08-17T05:33:22.574Z,30.13
2022-08-17T05:34:21.561Z,30.13
2022-08-17T05:35:21.542Z,30.13
2022-08-17T05:36:41.786Z,30.19
2022-08-17T05:37:22.534Z,30.13
2022-08-17T05:38:21.495Z,30.19
2022-08-17T05:39:21.494Z,30.13
2022-08-17T05:40:21.493Z,30.13
2022-08-17T05:41:21.738Z,30.13
2022-08-17T05:42:21.465Z,30.13
2022-08-17T05:43:21.443Z,30.13
2022-08-17T05:44:21.431Z,29.06
2022-08-17T05:45:32.687Z,30.08
2022-08-17T05:46:22.410Z,30.13
2022-08-17T05:47:21.384Z,30.13
2022-08-17T05:48:21.383Z,30.13
2022-08-17T05:49:22.356Z,30.19
2022-08-17T05:50:25.743Z,30.13
2022-08-17T05:51:22.333Z,30.13
2022-08-17T05:52:21.332Z,30.19
2022-08-17T05:53:21.313Z,30.19
2022-08-17T05:54:21.305Z,30.13
2022-08-17T05:55:21.282Z,30.13
2022-08-17T05:56:29.743Z,30.19
2022-08-17T05:57:22.251Z,30.19
2022-08-17T05:58:21.247Z,30.19
2022-08-17T05:59:21.230Z,30.13
2022-08-17T06:00:21.213Z,30.19
2022-08-17T06:01:22.247Z,30.19
2022-08-17T06:02:21.201Z,30.19
2022-08-17T06:03:21.183Z,30.13
2022-08-17T06:04:21.241Z,30.19
2022-08-17T06:05:21.142Z,30.19
2022-08-17T06:06:21.135Z,30.24
2022-08-17T06:07:21.123Z,30.13
2022-08-17T06:08:21.124Z,30.13
2022-08-17T06:09:26.549Z,30.19
2022-08-17T06:10:22.124Z,30.19
2022-08-17T06:11:21.065Z,30.13
2022-08-17T06:12:21.065Z,30.13
2022-08-17T06:13:21.054Z,30.13
2022-08-17T06:14:21.194Z,30.19
2022-08-17T06:15:21.013Z,30.13
2022-08-17T06:16:32.842Z,30.19
2022-08-17T06:17:21.984Z,30.19
2022-08-17T06:18:20.992Z,30.13
2022-08-17T06:19:22.094Z,30.19
2022-08-17T06:20:21.104Z,30.13
2022-08-17T06:21:20.935Z,30.13
2022-08-17T06:22:21.936Z,30.19
2022-08-17T06:23:20.944Z,30.13
2022-08-17T06:24:20.895Z,30.19
2022-08-17T06:25:20.932Z,30.19
2022-08-17T06:26:20.885Z,30.19
2022-08-17T06:27:21.854Z,30.13
2022-08-17T06:28:20.856Z,30.13
2022-08-17T06:29:20.825Z,30.19
2022-08-17T06:30:20.818Z,30.19
2022-08-17T06:31:20.805Z,30.19
2022-08-17T06:32:20.806Z,30.13
2022-08-17T06:33:21.070Z,30.19
2022-08-17T06:34:20.770Z,30.13
2022-08-17T06:35:20.988Z,30.19
2022-08-17T06:36:20.736Z,30.19
2022-08-17T06:37:20.723Z,30.19
2022-08-17T06:38:38.299Z,30.13
2022-08-17T06:39:21.695Z,30.19
2022-08-17T06:40:20.681Z,30.24
2022-08-17T06:41:20.665Z,29.59
2022-08-17T06:43:02.716Z,30.19
2022-08-17T06:43:21.721Z,30.19
2022-08-17T06:44:42.142Z,29.59
2022-08-17T06:45:21.606Z,29.54
2022-08-17T06:46:21.176Z,30.13
2022-08-17T06:47:28.391Z,30.08
2022-08-17T06:48:21.595Z,29.59
2022-08-17T06:49:20.567Z,29.54
2022-08-17T06:50:20.564Z,29.59
2022-08-17T06:51:20.526Z,29.54
2022-08-17T06:52:46.859Z,29.65
2022-08-17T06:53:21.506Z,30.19
2022-08-17T06:54:20.507Z,29.59
2022-08-17T06:55:20.580Z,29.65
2022-08-17T06:56:20.467Z,30.13
2022-08-17T06:57:20.480Z,30.19
2022-08-17T06:58:20.449Z,29.59
2022-08-17T06:59:20.434Z,29.59
2022-08-17T07:00:20.426Z,29.54
2022-08-17T07:01:20.469Z,29.59
2022-08-17T07:02:20.398Z,29.59
2022-08-17T07:03:21.388Z,30.19
2022-08-17T07:04:20.378Z,29.54
2022-08-17T07:05:20.338Z,30.13
2022-08-17T07:06:20.339Z,29.54
2022-08-17T07:07:20.310Z,29.59
2022-08-17T07:08:20.331Z,30.19
2022-08-17T07:09:20.282Z,29.54
2022-08-17T07:10:20.280Z,29.54
2022-08-17T07:11:20.267Z,30.19
2022-08-17T07:12:20.260Z,29.59
2022-08-17T07:13:20.250Z,29.54
2022-08-17T07:14:20.239Z,29.59
2022-08-17T07:15:20.209Z,29.54
2022-08-17T07:16:20.222Z,29.59
2022-08-17T07:17:20.185Z,29.54
2022-08-17T07:18:20.197Z,29.59
2022-08-17T07:19:20.173Z,29.76
2022-08-17T07:20:20.156Z,29.59
2022-08-17T07:21:22.975Z,29.59
2022-08-17T07:22:21.152Z,29.59
2022-08-17T07:23:20.120Z,29.59
2022-08-17T07:24:29.209Z,29.65
2022-08-17T07:25:21.118Z,29.54
2022-08-17T07:26:20.100Z,29.59
2022-08-17T07:27:20.068Z,29.54
2022-08-17T07:28:20.067Z,29.59
2022-08-17T07:29:20.053Z,29.59
2022-08-17T07:30:20.032Z,29.59
2022-08-17T07:31:20.033Z,29.59
2022-08-17T07:32:20.031Z,29.59
2022-08-17T07:33:20.048Z,29.59
2022-08-17T07:34:19.982Z,29.54
2022-08-17T07:35:20.085Z,30.13
2022-08-17T07:36:19.962Z,30.19
2022-08-17T07:37:19.929Z,29.59
2022-08-17T07:38:26.318Z,30.19
2022-08-17T07:39:20.897Z,30.19
2022-08-17T07:40:19.931Z,30.19
2022-08-17T07:41:19.909Z,30.19
2022-08-17T07:42:19.877Z,30.19
2022-08-17T07:43:21.904Z,30.19
2022-08-17T07:44:19.853Z,30.19
2022-08-17T07:45:19.806Z,30.19
2022-08-17T07:46:19.840Z,30.13
2022-08-17T07:47:19.786Z,30.19
2022-08-17T07:48:19.786Z,30.19
2022-08-17T07:49:19.791Z,31.15
2022-08-17T07:50:23.923Z,30.13
2022-08-17T07:51:20.725Z,30.19
2022-08-17T07:52:48.379Z,30.13
2022-08-17T07:53:20.714Z,30.13
2022-08-17T07:54:19.697Z,30.19
2022-08-17T07:55:19.685Z,30.19
2022-08-17T07:56:19.695Z,30.13
2022-08-17T07:57:19.667Z,30.24
2022-08-17T07:58:19.646Z,30.19
2022-08-17T07:59:23.175Z,30.19
2022-08-17T08:00:19.627Z,30.19
2022-08-17T08:01:20.642Z,30.19
2022-08-17T08:02:19.640Z,30.19
2022-08-17T08:03:19.596Z,30.19
2022-08-17T08:04:25.838Z,30.19
2022-08-17T08:05:48.563Z,30.19
2022-08-17T08:06:20.565Z,29.97
2022-08-17T08:07:19.519Z,30.13
2022-08-17T08:08:19.537Z,30.19
2022-08-17T08:09:19.491Z,30.19
2022-08-17T08:10:19.550Z,30.13
2022-08-17T08:11:19.484Z,30.19
2022-08-17T08:12:19.459Z,30.13
2022-08-17T08:13:19.462Z,29.76
2022-08-17T08:14:19.429Z,29.65
2022-08-17T08:15:19.458Z,30.19
2022-08-17T08:16:19.409Z,30.13
2022-08-17T08:17:19.388Z,30.19
2022-08-17T08:18:19.388Z,30.19
2022-08-17T08:19:21.174Z,30.19
2022-08-17T08:20:51.165Z,30.19
2022-08-17T08:21:20.339Z,30.19
2022-08-17T08:22:19.351Z,29.65
2022-08-17T08:23:19.329Z,30.19
2022-08-17T08:24:19.298Z,29.59
2022-08-17T08:25:19.280Z,30.19
2022-08-17T08:26:19.270Z,30.13
2022-08-17T08:27:19.271Z,30.19
2022-08-17T08:28:19.264Z,30.19
2022-08-17T08:29:19.237Z,30.13
2022-08-17T08:30:19.220Z,30.19
2022-08-17T08:31:19.219Z,30.19
2022-08-17T08:32:19.210Z,30.19
2022-08-17T08:33:19.212Z,30.13
2022-08-17T08:34:44.621Z,30.19
2022-08-17T08:35:20.159Z,30.19
2022-08-17T08:37:14.243Z,30.13
2022-08-17T08:37:30.291Z,30.19
2022-08-17T08:38:20.151Z,30.19
2022-08-17T08:39:19.113Z,30.19
2022-08-17T08:40:19.117Z,30.13
2022-08-17T08:41:19.093Z,30.24
2022-08-17T08:42:19.074Z,30.19
2022-08-17T08:43:19.096Z,30.19
2022-08-17T08:44:19.062Z,30.19
2022-08-17T08:45:19.053Z,30.19
2022-08-17T08:46:19.840Z,30.08
2022-08-17T08:47:19.003Z,30.19
2022-08-17T08:48:45.929Z,30.19
2022-08-17T08:49:29.694Z,30.13
2022-08-17T08:50:34.127Z,30.13
2022-08-17T08:51:19.951Z,30.08
2022-08-17T08:52:18.945Z,30.19
2022-08-17T08:53:18.940Z,30.13
2022-08-17T08:54:22.334Z,30.13
2022-08-17T08:55:19.915Z,30.19
2022-08-17T08:56:18.885Z,30.19
2022-08-17T08:57:25.518Z,30.19
2022-08-17T08:58:32.165Z,30.29
2022-08-17T08:59:19.844Z,30.13
2022-08-17T09:00:18.891Z,29.54
2022-08-17T09:01:18.851Z,30.19
2022-08-17T09:02:18.816Z,30.19
2022-08-17T09:03:18.816Z,30.19
2022-08-17T09:04:24.649Z,30.19
2022-08-17T09:05:19.774Z,30.13
2022-08-17T09:06:33.256Z,30.19
2022-08-17T09:07:19.745Z,30.19
2022-08-17T09:08:18.757Z,30.19
2022-08-17T09:09:18.725Z,29.59
2022-08-17T09:10:18.773Z,30.19
2022-08-17T09:11:18.696Z,30.13
2022-08-17T09:12:18.707Z,30.13
2022-08-17T09:13:18.817Z,29.59
2022-08-17T09:14:22.096Z,30.19
2022-08-17T09:15:19.656Z,29.22
2022-08-17T09:16:18.628Z,30.45
2022-08-17T09:17:18.638Z,29.59
2022-08-17T09:19:01.516Z,29.65
2022-08-17T09:19:19.593Z,30.19
2022-08-17T09:20:27.982Z,30.19
2022-08-17T09:21:19.566Z,29.65
2022-08-17T09:22:18.643Z,30.19
2022-08-17T09:23:18.549Z,29.59
2022-08-17T09:24:20.806Z,29.59
2022-08-17T09:25:18.540Z,30.19
2022-08-17T09:26:18.508Z,29.59
2022-08-17T09:27:18.499Z,29.59
2022-08-17T09:28:18.499Z,29.59
2022-08-17T09:29:18.463Z,29.59
2022-08-17T09:30:18.463Z,29.59
2022-08-17T09:31:18.440Z,29.65
2022-08-17T09:32:18.517Z,29.65
2022-08-17T09:33:18.428Z,29.65
2022-08-17T09:34:18.409Z,29.59
2022-08-17T09:35:18.382Z,29.59
2022-08-17T09:36:18.381Z,29.59
2022-08-17T09:37:18.365Z,30.13
2022-08-17T09:38:18.481Z,29.59
2022-08-17T09:39:18.331Z,29.59
2022-08-17T09:40:18.462Z,29.59
2022-08-17T09:41:18.309Z,30.19
2022-08-17T09:42:18.361Z,30.19
2022-08-17T09:43:18.293Z,29.59
2022-08-17T09:44:23.199Z,29.54
2022-08-17T09:45:19.269Z,29.59
2022-08-17T09:46:18.277Z,29.59
2022-08-17T09:47:18.256Z,29.59
2022-08-17T09:48:18.384Z,29.65
2022-08-17T09:49:20.708Z,29.59
2022-08-17T09:50:19.193Z,30.19
2022-08-17T09:51:19.182Z,30.19
2022-08-17T09:52:18.285Z,29.59
2022-08-17T09:53:18.163Z,29.65
2022-08-17T09:54:38.065Z,30.29
2022-08-17T09:55:19.126Z,30.13
2022-08-17T09:56:18.123Z,29.65
2022-08-17T09:57:29.728Z,29.59
2022-08-17T09:58:19.105Z,29.59
2022-08-17T09:59:18.076Z,30.19
2022-08-17T10:00:18.086Z,29.70
2022-08-17T10:01:18.178Z,29.59
2022-08-17T10:02:18.036Z,29.59
2022-08-17T10:03:18.053Z,30.29
2022-08-17T10:04:20.231Z,29.54
2022-08-17T10:05:18.016Z,30.19
2022-08-17T10:06:21.992Z,29.59
2022-08-17T10:07:17.996Z,29.59
2022-08-17T10:08:17.986Z,29.59
2022-08-17T10:09:17.958Z,29.59
2022-08-17T10:10:18.025Z,29.59
2022-08-17T10:11:17.965Z,29.54
2022-08-17T10:12:18.064Z,29.54
2022-08-17T10:13:18.396Z,30.19
2022-08-17T10:14:36.785Z,29.54
2022-08-17T10:15:18.884Z,29.59
2022-08-17T10:16:17.858Z,29.65
2022-08-17T10:17:17.861Z,29.65
2022-08-17T10:18:17.847Z,29.59
2022-08-17T10:19:17.823Z,29.59
2022-08-17T10:20:17.818Z,29.54
2022-08-17T10:21:17.799Z,29.59
2022-08-17T10:22:35.176Z,29.65
2022-08-17T10:23:18.787Z,29.59
2022-08-17T10:24:17.790Z,29.59
2022-08-17T10:25:23.617Z,28.95
2022-08-17T10:26:18.767Z,29.59
2022-08-17T10:27:17.727Z,29.59
2022-08-17T10:28:20.138Z,29.59
2022-08-17T10:29:17.697Z,29.59
2022-08-17T10:30:17.677Z,29.65
2022-08-17T10:31:34.142Z,29.59
2022-08-17T10:32:18.650Z,29.59
2022-08-17T10:33:17.659Z,29.59
2022-08-17T10:34:17.632Z,29.59
2022-08-17T10:35:17.621Z,29.59
2022-08-17T10:36:17.612Z,29.59
2022-08-17T10:37:17.601Z,29.54
2022-08-17T10:38:17.582Z,29.59
2022-08-17T10:39:17.664Z,30.02
2022-08-17T10:40:17.575Z,29.54
2022-08-17T10:41:17.578Z,29.54
2022-08-17T10:42:30.104Z,29.59
2022-08-17T10:43:18.510Z,29.59
2022-08-17T10:44:38.415Z,29.54
2022-08-17T10:45:18.540Z,29.54
2022-08-17T10:46:29.900Z,29.59
2022-08-17T10:47:18.470Z,29.59
2022-08-17T10:48:17.451Z,29.65
2022-08-17T10:49:17.472Z,29.59
2022-08-17T10:50:17.452Z,29.59
2022-08-17T10:51:17.414Z,29.59
2022-08-17T10:52:17.393Z,30.19
2022-08-17T10:53:19.934Z,29.59
2022-08-17T10:54:17.395Z,29.65
2022-08-17T10:55:17.365Z,29.59
2022-08-17T10:56:17.344Z,29.59
2022-08-17T10:57:17.338Z,29.59
2022-08-17T10:58:17.334Z,29.59
2022-08-17T10:59:17.331Z,29.59
2022-08-17T11:00:17.306Z,29.65
2022-08-17T11:01:17.353Z,30.19
2022-08-17T11:02:17.305Z,29.17
2022-08-17T11:03:17.266Z,29.59
2022-08-17T11:04:17.277Z,29.59
2022-08-17T11:05:17.245Z,29.65
2022-08-17T11:06:17.234Z,29.54
2022-08-17T11:07:17.215Z,29.59
2022-08-17T11:08:17.440Z,29.59
2022-08-17T11:09:17.206Z,29.59
2022-08-17T11:10:17.178Z,29.59
2022-08-17T11:11:17.165Z,29.54
2022-08-17T11:12:17.245Z,29.59
2022-08-17T11:13:17.144Z,29.65
2022-08-17T11:14:17.163Z,29.59
2022-08-17T11:15:17.117Z,29.65
2022-08-17T11:16:17.096Z,29.65
2022-08-17T11:17:17.097Z,29.65
2022-08-17T11:18:17.076Z,29.59
2022-08-17T11:19:17.080Z,29.59
2022-08-17T11:20:17.049Z,29.59
2022-08-17T11:21:17.060Z,29.59
2022-08-17T11:22:17.036Z,29.70
2022-08-17T11:23:17.018Z,29.59
2022-08-17T11:24:17.018Z,29.59
2022-08-17T11:25:17.018Z,29.59
2022-08-17T11:26:16.979Z,29.54
2022-08-17T11:27:16.986Z,29.65
2022-08-17T11:28:18.113Z,29.54
2022-08-17T11:29:16.978Z,29.65
2022-08-17T11:30:17.414Z,29.59
2022-08-17T11:31:17.001Z,29.54
2022-08-17T11:32:16.899Z,29.54
2022-08-17T11:33:16.909Z,29.54
2022-08-17T11:34:16.893Z,29.22
2022-08-17T11:35:16.881Z,29.59
2022-08-17T11:36:16.861Z,29.76
2022-08-17T11:37:16.881Z,29.59
2022-08-17T11:38:16.981Z,29.22
2022-08-17T11:39:16.850Z,29.65
2022-08-17T11:40:16.883Z,29.59
2022-08-17T11:41:16.820Z,29.59
2022-08-17T11:42:16.782Z,29.65
2022-08-17T11:43:16.782Z,29.59
2022-08-17T11:44:16.773Z,29.22
2022-08-17T11:45:19.519Z,29.59
2022-08-17T11:46:17.732Z,29.59
2022-08-17T11:47:16.734Z,30.56
2022-08-17T11:48:27.629Z,29.54
2022-08-17T11:49:17.726Z,29.59
2022-08-17T11:50:16.704Z,29.59
2022-08-17T11:51:16.694Z,29.59
2022-08-17T11:52:16.662Z,29.65
2022-08-17T11:53:16.661Z,29.65
2022-08-17T11:54:32.360Z,29.59
2022-08-17T11:55:34.524Z,29.70
2022-08-17T11:56:17.624Z,29.59
2022-08-17T11:57:16.604Z,29.59
2022-08-17T11:58:16.603Z,29.59
2022-08-17T11:59:16.644Z,29.59
2022-08-17T12:00:16.563Z,29.59
2022-08-17T12:01:16.687Z,29.59
2022-08-17T12:02:16.556Z,29.59
2022-08-17T12:03:16.612Z,29.59
2022-08-17T12:04:16.575Z,29.59
2022-08-17T12:05:16.515Z,29.59
2022-08-17T12:06:16.495Z,29.65
2022-08-17T12:07:16.486Z,29.59
2022-08-17T12:08:16.472Z,29.59
2022-08-17T12:09:16.474Z,29.65
2022-08-17T12:10:16.447Z,29.59
2022-08-17T12:11:16.436Z,29.59
2022-08-17T12:12:17.434Z,29.59
2022-08-17T12:13:16.405Z,29.59
2022-08-17T12:14:20.181Z,29.59
2022-08-17T12:15:17.387Z,29.65
2022-08-17T12:16:16.395Z,29.59
2022-08-17T12:17:34.697Z,29.59
2022-08-17T12:18:17.373Z,29.65
2022-08-17T12:19:16.346Z,29.59
2022-08-17T12:20:16.361Z,29.59
2022-08-17T12:21:16.319Z,29.59
2022-08-17T12:22:16.290Z,29.59
2022-08-17T12:23:16.287Z,29.54
2022-08-17T12:24:16.281Z,29.65
2022-08-17T12:25:16.249Z,29.59
2022-08-17T12:26:16.239Z,29.65
2022-08-17T12:27:16.241Z,29.65
2022-08-17T12:28:19.948Z,29.59
2022-08-17T12:29:18.111Z,29.59
2022-08-17T12:30:17.201Z,29.65
2022-08-17T12:31:16.191Z,29.54
2022-08-17T12:32:16.187Z,29.59
2022-08-17T12:33:25.226Z,29.59
2022-08-17T12:34:17.163Z,29.81
2022-08-17T12:35:16.130Z,29.54
2022-08-17T12:36:16.133Z,29.59
2022-08-17T12:37:16.123Z,29.59
2022-08-17T12:38:26.877Z,29.59
2022-08-17T12:39:21.432Z,29.65
2022-08-17T12:40:16.067Z,29.59
2022-08-17T12:41:16.061Z,29.59
2022-08-17T12:42:16.048Z,29.59
2022-08-17T12:43:16.039Z,29.65
2022-08-17T12:44:16.043Z,29.59
2022-08-17T12:45:16.012Z,29.59
2022-08-17T12:46:16.003Z,29.65
2022-08-17T12:47:21.552Z,29.59
2022-08-17T12:48:16.963Z,29.59
2022-08-17T12:49:15.992Z,29.65
2022-08-17T12:50:28.984Z,29.59
2022-08-17T12:51:16.944Z,29.59
2022-08-17T12:52:15.921Z,29.59